createdAt,value
2023-01-20T00:00:04.853Z,4.10
2023-01-20T00:01:18.617Z,3.50
2023-01-20T00:02:23.680Z,3.50
2023-01-20T00:03:29.826Z,3.50
2023-01-20T00:04:35.251Z,3.60
2023-01-20T00:05:40.481Z,2.70
2023-01-20T00:06:43.215Z,3.60
2023-01-20T00:07:46.959Z,3.60
2023-01-20T00:08:51.868Z,3.50
2023-01-20T00:09:55.216Z,3.50
2023-01-20T00:10:57.995Z,2.40
2023-01-20T00:12:01.906Z,3.60
2023-01-20T00:13:04.482Z,3.60
2023-01-20T00:14:10.749Z,3.50
2023-01-20T00:15:13.416Z,3.50
2023-01-20T00:16:22.322Z,3.60
2023-01-20T00:17:25.361Z,3.60
2023-01-20T00:18:28.630Z,3.60
2023-01-20T00:19:31.090Z,3.60
2023-01-20T00:20:34.629Z,3.60
2023-01-20T00:21:39.110Z,3.60
2023-01-20T00:22:44.150Z,3.60
2023-01-20T00:23:58.620Z,4.70
2023-01-20T00:25:05.100Z,3.60
2023-01-20T00:26:09.279Z,3.60
2023-01-20T00:27:12.726Z,3.60
2023-01-20T00:28:16.989Z,3.60
2023-01-20T00:29:20.463Z,3.50
2023-01-20T00:30:25.183Z,3.50
2023-01-20T00:31:31.139Z,3.50
2023-01-20T00:32:38.043Z,3.50
2023-01-20T00:33:42.422Z,3.50
2023-01-20T00:34:46.933Z,3.60
2023-01-20T00:35:50.313Z,3.50
2023-01-20T00:36:55.738Z,3.50
2023-01-20T00:37:58.519Z,3.50
2023-01-20T00:39:03.123Z,3.50
2023-01-20T00:40:06.888Z,3.50
2023-01-20T00:41:11.437Z,3.50
2023-01-20T00:42:13.981Z,3.50
2023-01-20T00:43:17.952Z,3.60
2023-01-20T00:44:20.660Z,3.50
2023-01-20T00:45:24.371Z,3.50
2023-01-20T00:46:27.321Z,3.50
2023-01-20T00:47:33.066Z,3.50
2023-01-20T00:48:39.373Z,3.50
2023-01-20T00:49:42.902Z,3.50
2023-01-20T00:50:45.604Z,3.40
2023-01-20T00:51:49.448Z,3.50
2023-01-20T00:52:53.473Z,3.40
2023-01-20T00:53:57.860Z,3.50
2023-01-20T00:55:00.419Z,5.40
2023-01-20T00:56:04.583Z,3.40
2023-01-20T00:57:08.479Z,3.40
2023-01-20T00:58:11.333Z,3.40
2023-01-20T00:59:15.139Z,4.50
2023-01-20T01:00:21.537Z,3.50
2023-01-20T01:01:25.661Z,3.50
2023-01-20T01:02:31.333Z,3.50
2023-01-20T01:03:37.924Z,3.60
2023-01-20T01:04:40.884Z,3.50
2023-01-20T01:05:45.121Z,3.50
2023-01-20T01:06:49.582Z,3.40
2023-01-20T01:07:57.024Z,3.50
2023-01-20T01:09:00.877Z,3.50
2023-01-20T01:10:03.806Z,3.50
2023-01-20T01:11:08.072Z,3.50
2023-01-20T01:12:10.750Z,3.50
2023-01-20T01:13:14.468Z,3.50
2023-01-20T01:14:17.428Z,4.00
2023-01-20T01:15:21.078Z,3.50
2023-01-20T01:16:24.379Z,3.50
2023-01-20T01:17:29.908Z,3.50
2023-01-20T01:18:34.649Z,3.50
2023-01-20T01:19:41.881Z,3.40
2023-01-20T01:20:49.516Z,3.40
2023-01-20T01:21:53.317Z,3.50
2023-01-20T01:22:57.417Z,3.40
2023-01-20T01:24:01.026Z,3.40
2023-01-20T01:25:03.528Z,3.40
2023-01-20T01:26:07.745Z,3.40
2023-01-20T01:27:10.056Z,4.50
2023-01-20T01:28:13.966Z,3.50
2023-01-20T01:29:17.958Z,3.40
2023-01-20T01:30:24.359Z,3.40
2023-01-20T01:31:28.765Z,3.50
2023-01-20T01:32:32.476Z,3.50
2023-01-20T01:33:35.837Z,3.40
2023-01-20T01:34:41.810Z,3.40
2023-01-20T01:35:44.513Z,3.70
2023-01-20T01:36:50.044Z,3.40
2023-01-20T01:37:57.353Z,3.40
2023-01-20T01:39:00.672Z,3.40
2023-01-20T01:40:05.432Z,3.40
2023-01-20T01:41:09.107Z,3.50
2023-01-20T01:42:13.024Z,3.50
2023-01-20T01:43:24.494Z,3.40
2023-01-20T01:44:30.447Z,3.40
2023-01-20T01:45:36.607Z,3.40
2023-01-20T01:46:41.859Z,3.50
2023-01-20T01:47:50.915Z,3.50
2023-01-20T01:48:55.649Z,2.90
2023-01-20T01:49:58.033Z,3.40
2023-01-20T01:51:07.234Z,3.40
2023-01-20T01:52:12.636Z,3.50
2023-01-20T01:53:18.379Z,3.50
2023-01-20T01:54:26.036Z,3.40
2023-01-20T01:55:36.012Z,3.40
2023-01-20T01:56:41.756Z,3.50
2023-01-20T01:57:45.150Z,5.30
2023-01-20T01:58:53.149Z,3.40
2023-01-20T01:59:57.593Z,3.40
2023-01-20T02:01:01.669Z,3.40
2023-01-20T02:02:04.607Z,3.40
2023-01-20T02:03:12.709Z,2.70
2023-01-20T02:04:25.747Z,3.40
2023-01-20T02:05:31.994Z,3.40
2023-01-20T02:06:39.278Z,3.40
2023-01-20T02:07:48.653Z,3.40
2023-01-20T02:08:55.162Z,3.40
2023-01-20T02:09:58.056Z,3.40
2023-01-20T02:11:01.633Z,4.70
2023-01-20T02:12:10.883Z,3.40
2023-01-20T02:13:18.604Z,3.40
2023-01-20T02:14:28.775Z,3.40
2023-01-20T02:15:40.743Z,3.50
2023-01-20T02:16:57.975Z,3.40
2023-01-20T02:18:25.482Z,3.40
2023-01-20T02:20:08.409Z,3.40
2023-01-20T02:21:49.655Z,3.40
2023-01-20T02:23:03.265Z,3.40
2023-01-20T02:24:57.821Z,3.40
2023-01-20T02:26:43.851Z,4.10
2023-01-20T02:28:10.325Z,3.40
2023-01-20T02:29:49.584Z,3.40
2023-01-20T02:31:22.111Z,1.90
2023-01-20T02:32:41.674Z,3.40
2023-01-20T02:33:52.521Z,3.40
2023-01-20T02:35:01.934Z,3.40
2023-01-20T02:36:10.114Z,3.50
2023-01-20T02:37:24.368Z,3.50
2023-01-20T02:38:41.021Z,3.40
2023-01-20T02:39:55.903Z,3.40
2023-01-20T02:41:11.285Z,3.40
2023-01-20T02:42:20.480Z,4.30
2023-01-20T02:43:34.070Z,3.50
2023-01-20T02:44:43.360Z,3.50
2023-01-20T02:45:57.583Z,3.50
2023-01-20T02:47:09.404Z,3.50
2023-01-20T02:48:25.742Z,2.20
2023-01-20T02:49:34.925Z,3.50
2023-01-20T02:50:50.012Z,3.40
2023-01-20T02:52:01.937Z,3.40
2023-01-20T02:53:09.773Z,3.40
2023-01-20T02:54:17.260Z,3.40
2023-01-20T02:55:27.435Z,3.40
2023-01-20T02:56:34.184Z,3.40
2023-01-20T02:57:49.578Z,3.40
2023-01-20T02:59:01.196Z,3.50
2023-01-20T03:00:13.520Z,3.40
2023-01-20T03:01:25.762Z,3.40
2023-01-20T03:02:33.007Z,4.20
2023-01-20T03:03:46.293Z,3.40
2023-01-20T03:04:58.199Z,3.40
2023-01-20T03:06:06.886Z,3.40
2023-01-20T03:07:16.340Z,3.50
2023-01-20T03:08:25.736Z,4.50
2023-01-20T03:09:33.856Z,3.50
2023-01-20T03:10:42.025Z,3.50
2023-01-20T03:11:51.532Z,3.40
2023-01-20T03:13:00.332Z,3.50
2023-01-20T03:14:09.070Z,3.40
2023-01-20T03:15:14.009Z,3.40
2023-01-20T03:16:20.858Z,3.40
2023-01-20T03:17:27.637Z,3.50
2023-01-20T03:18:32.855Z,3.90
2023-01-20T03:19:41.252Z,3.40
2023-01-20T03:20:43.790Z,1.80
2023-01-20T03:21:49.479Z,3.40
2023-01-20T03:22:56.262Z,1.90
2023-01-20T03:24:04.262Z,3.40
2023-01-20T03:25:09.720Z,3.40
2023-01-20T03:26:15.625Z,3.40
2023-01-20T03:27:19.528Z,3.40
2023-01-20T03:28:21.845Z,3.40
2023-01-20T03:29:29.179Z,3.40
2023-01-20T03:31:18.741Z,4.00
2023-01-20T03:32:27.102Z,3.40
2023-01-20T03:33:36.216Z,3.40
2023-01-20T03:34:44.738Z,3.40
2023-01-20T03:35:47.837Z,3.40
2023-01-20T03:36:53.337Z,3.90
2023-01-20T03:37:57.725Z,3.40
2023-01-20T03:39:02.533Z,3.40
2023-01-20T03:40:07.175Z,3.40
2023-01-20T03:41:25.808Z,3.40
2023-01-20T03:42:40.548Z,3.40
2023-01-20T03:43:51.170Z,4.80
2023-01-20T03:45:06.903Z,3.40
2023-01-20T03:46:19.550Z,3.40
2023-01-20T03:47:39.484Z,4.90
2023-01-20T03:48:50.104Z,2.20
2023-01-20T03:50:07.852Z,3.30
2023-01-20T03:51:24.834Z,3.40
2023-01-20T03:52:48.490Z,3.40
2023-01-20T03:53:58.168Z,3.40
2023-01-20T03:55:06.442Z,3.40
2023-01-20T03:56:18.386Z,3.40
2023-01-20T03:57:26.511Z,3.40
2023-01-20T03:58:33.584Z,4.70
2023-01-20T03:59:42.867Z,3.50
2023-01-20T04:00:49.527Z,3.40
2023-01-20T04:01:55.453Z,3.40
2023-01-20T04:03:04.096Z,3.40
2023-01-20T04:04:14.559Z,3.40
2023-01-20T04:05:19.477Z,3.40
2023-01-20T04:06:29.181Z,3.40
2023-01-20T04:07:33.463Z,3.50
2023-01-20T04:08:42.768Z,3.50
2023-01-20T04:09:51.022Z,3.40
2023-01-20T04:11:24.998Z,3.50
2023-01-20T04:12:28.851Z,3.60
2023-01-20T04:13:31.913Z,3.50
2023-01-20T04:14:36.649Z,3.50
2023-01-20T04:15:44.483Z,3.40
2023-01-20T04:16:54.231Z,3.40
2023-01-20T04:17:56.930Z,3.50
2023-01-20T04:19:00.742Z,4.60
2023-01-20T04:20:12.384Z,3.40
2023-01-20T04:21:25.150Z,3.50
2023-01-20T04:22:36.276Z,4.00
2023-01-20T04:23:46.524Z,3.50
2023-01-20T04:24:55.617Z,3.50
2023-01-20T04:25:59.100Z,3.50
2023-01-20T04:27:01.911Z,3.60
2023-01-20T04:28:05.313Z,3.60
2023-01-20T04:29:10.569Z,3.60
2023-01-20T04:30:16.593Z,3.60
2023-01-20T04:31:30.020Z,3.60
2023-01-20T04:32:33.873Z,3.60
2023-01-20T04:33:37.745Z,3.50
2023-01-20T04:34:41.486Z,3.70
2023-01-20T04:35:46.203Z,3.60
2023-01-20T04:36:50.964Z,3.70
2023-01-20T04:37:54.069Z,3.60
2023-01-20T04:38:57.871Z,3.60
2023-01-20T04:40:00.231Z,3.50
2023-01-20T04:41:03.855Z,3.50
2023-01-20T04:42:07.437Z,3.60
2023-01-20T04:43:12.196Z,3.50
2023-01-20T04:44:14.764Z,3.50
2023-01-20T04:45:18.924Z,3.40
2023-01-20T04:46:21.581Z,3.40
2023-01-20T04:47:25.177Z,3.90
2023-01-20T04:48:30.214Z,3.40
2023-01-20T04:49:36.213Z,3.50
2023-01-20T04:50:39.848Z,3.50
2023-01-20T04:51:43.491Z,3.60
2023-01-20T04:52:55.297Z,3.50
2023-01-20T04:54:02.423Z,3.50
2023-01-20T04:55:05.645Z,3.50
2023-01-20T04:56:15.055Z,3.70
2023-01-20T04:57:20.902Z,3.40
2023-01-20T04:58:24.230Z,3.40
2023-01-20T04:59:26.591Z,3.40
2023-01-20T05:00:30.415Z,3.40
2023-01-20T05:01:36.934Z,3.60
2023-01-20T05:02:39.473Z,4.20
2023-01-20T05:03:43.047Z,3.40
2023-01-20T05:04:45.672Z,3.40
2023-01-20T05:05:58.407Z,2.20
2023-01-20T05:07:01.735Z,3.40
2023-01-20T05:08:07.389Z,3.50
2023-01-20T05:09:13.547Z,3.00
2023-01-20T05:10:17.263Z,3.50
2023-01-20T05:11:22.281Z,3.50
2023-01-20T05:12:29.816Z,3.60
2023-01-20T05:13:32.496Z,2.90
2023-01-20T05:14:36.084Z,3.60
2023-01-20T05:15:39.816Z,3.60
2023-01-20T05:16:51.944Z,3.60
2023-01-20T05:18:03.604Z,3.70
2023-01-20T05:19:09.172Z,3.60
2023-01-20T05:20:14.289Z,3.60
2023-01-20T05:21:16.855Z,3.70
2023-01-20T05:22:20.259Z,3.70
2023-01-20T05:23:26.375Z,3.70
2023-01-20T05:24:32.303Z,3.70
2023-01-20T05:25:34.705Z,3.70
2023-01-20T05:26:46.228Z,3.70
2023-01-20T05:27:49.205Z,3.80
2023-01-20T05:28:52.668Z,3.70
2023-01-20T05:29:55.232Z,3.80
2023-01-20T05:30:59.162Z,3.70
2023-01-20T05:32:01.774Z,3.70
2023-01-20T05:33:05.488Z,3.70
2023-01-20T05:34:07.968Z,4.90
2023-01-20T05:35:12.209Z,5.30
2023-01-20T05:36:14.780Z,3.70
2023-01-20T05:37:18.877Z,3.10
2023-01-20T05:38:26.156Z,3.80
2023-01-20T05:39:29.550Z,3.80
2023-01-20T05:40:32.132Z,3.80
2023-01-20T05:41:35.739Z,3.80
2023-01-20T05:42:38.392Z,3.80
2023-01-20T05:43:41.826Z,4.20
2023-01-20T05:44:44.312Z,3.80
2023-01-20T05:45:48.052Z,3.80
2023-01-20T05:46:50.527Z,3.80
2023-01-20T05:47:56.876Z,3.20
2023-01-20T05:48:59.214Z,3.80
2023-01-20T05:50:02.744Z,3.80
2023-01-20T05:51:05.794Z,3.90
2023-01-20T05:52:10.113Z,3.80
2023-01-20T05:53:12.590Z,3.90
2023-01-20T05:54:21.054Z,3.80
2023-01-20T05:55:23.456Z,3.80
2023-01-20T05:56:27.548Z,3.80
2023-01-20T05:57:33.745Z,3.80
2023-01-20T05:58:36.288Z,3.80
2023-01-20T05:59:39.815Z,3.80
2023-01-20T06:00:47.529Z,3.80
2023-01-20T06:01:54.057Z,3.80
2023-01-20T06:02:56.662Z,4.50
2023-01-20T06:04:00.197Z,3.90
2023-01-20T06:05:02.636Z,3.80
2023-01-20T06:06:14.266Z,3.80
2023-01-20T06:07:17.159Z,3.80
2023-01-20T06:08:20.684Z,3.80
2023-01-20T06:09:28.439Z,3.80
2023-01-20T06:10:30.805Z,3.80
2023-01-20T06:11:36.861Z,3.80
2023-01-20T06:12:53.125Z,3.80
2023-01-20T06:13:57.996Z,3.80
2023-01-20T06:15:03.945Z,4.90
2023-01-20T06:16:09.920Z,3.80
2023-01-20T06:17:13.733Z,3.80
2023-01-20T06:18:16.384Z,3.80
2023-01-20T06:19:19.777Z,3.80
2023-01-20T06:20:22.361Z,3.80
2023-01-20T06:21:28.126Z,3.80
2023-01-20T06:22:30.747Z,3.90
2023-01-20T06:23:34.634Z,3.80
2023-01-20T06:24:41.506Z,3.80
2023-01-20T06:26:02.253Z,3.90
2023-01-20T06:27:12.223Z,3.90
2023-01-20T06:28:19.010Z,3.90
2023-01-20T06:29:25.607Z,3.90
2023-01-20T06:30:30.231Z,3.90
2023-01-20T06:31:34.356Z,3.90
2023-01-20T06:32:38.738Z,3.90
2023-01-20T06:33:42.969Z,3.90
2023-01-20T06:34:46.281Z,3.90
2023-01-20T06:35:49.810Z,3.90
2023-01-20T06:36:55.251Z,4.00
2023-01-20T06:37:59.609Z,3.90
2023-01-20T06:39:02.114Z,3.90
2023-01-20T06:40:08.069Z,4.00
2023-01-20T06:41:13.813Z,3.90
2023-01-20T06:42:18.030Z,4.40
2023-01-20T06:43:20.613Z,3.20
2023-01-20T06:44:27.043Z,4.00
2023-01-20T06:45:29.872Z,4.00
2023-01-20T06:46:33.397Z,4.00
2023-01-20T06:47:38.194Z,4.00
2023-01-20T06:48:43.017Z,4.30
2023-01-20T06:49:49.055Z,4.00
2023-01-20T06:50:52.734Z,4.10
2023-01-20T06:51:55.293Z,4.10
2023-01-20T06:53:00.231Z,4.10
2023-01-20T06:54:04.059Z,4.10
2023-01-20T06:55:09.715Z,4.10
2023-01-20T06:56:14.854Z,4.10
2023-01-20T06:57:22.026Z,4.00
2023-01-20T06:58:27.705Z,4.10
2023-01-20T06:59:31.213Z,2.80
2023-01-20T07:00:37.136Z,4.10
2023-01-20T07:01:43.911Z,4.10
2023-01-20T07:02:51.157Z,4.10
2023-01-20T07:03:55.974Z,4.00
2023-01-20T07:05:00.086Z,4.10
2023-01-20T07:06:05.714Z,4.10
2023-01-20T07:07:13.272Z,4.10
2023-01-20T07:08:15.603Z,4.10
2023-01-20T07:09:19.636Z,4.10
2023-01-20T07:10:24.886Z,5.40
2023-01-20T07:11:30.598Z,4.20
2023-01-20T07:12:33.938Z,4.20
2023-01-20T07:13:37.358Z,4.20
2023-01-20T07:14:43.062Z,4.40
2023-01-20T07:15:48.624Z,4.20
2023-01-20T07:16:52.211Z,4.20
2023-01-20T07:17:54.821Z,4.30
2023-01-20T07:18:58.642Z,4.30
2023-01-20T07:20:02.704Z,4.30
2023-01-20T07:21:06.312Z,4.30
2023-01-20T07:22:11.927Z,4.30
2023-01-20T07:23:15.012Z,4.30
2023-01-20T07:24:21.353Z,4.30
2023-01-20T07:25:25.826Z,4.30
2023-01-20T07:26:29.439Z,4.30
2023-01-20T07:27:33.097Z,4.30
2023-01-20T07:28:36.746Z,3.30
2023-01-20T07:29:44.962Z,4.30
2023-01-20T07:30:50.062Z,4.20
2023-01-20T07:31:53.530Z,4.20
2023-01-20T07:32:56.017Z,4.30
2023-01-20T07:34:00.203Z,4.20
2023-01-20T07:35:03.802Z,4.20
2023-01-20T07:36:08.489Z,4.20
2023-01-20T07:37:11.800Z,4.20
2023-01-20T07:38:14.104Z,4.20
2023-01-20T07:39:20.701Z,4.30
2023-01-20T07:40:25.548Z,4.30
2023-01-20T07:41:29.354Z,4.30
2023-01-20T07:42:31.956Z,4.20
2023-01-20T07:43:35.532Z,4.20
2023-01-20T07:44:41.692Z,4.30
2023-01-20T07:45:45.426Z,4.30
2023-01-20T07:46:51.755Z,4.40
2023-01-20T07:47:56.142Z,4.30
2023-01-20T07:49:01.653Z,4.30
2023-01-20T07:50:07.658Z,4.20
2023-01-20T07:51:14.352Z,5.60
2023-01-20T07:52:17.883Z,4.30
2023-01-20T07:53:20.866Z,4.30
2023-01-20T07:54:24.416Z,4.40
2023-01-20T07:55:29.454Z,4.40
2023-01-20T07:56:33.115Z,4.40
2023-01-20T07:57:35.638Z,4.40
2023-01-20T07:58:41.902Z,4.40
2023-01-20T07:59:45.266Z,4.40
2023-01-20T08:00:49.259Z,4.40
2023-01-20T08:01:55.015Z,4.40
2023-01-20T08:02:57.803Z,4.40
2023-01-20T08:04:05.015Z,4.40
2023-01-20T08:05:12.682Z,4.40
2023-01-20T08:06:23.942Z,4.40
2023-01-20T08:07:26.326Z,4.50
2023-01-20T08:08:30.344Z,4.50
2023-01-20T08:09:37.958Z,3.30
2023-01-20T08:10:44.710Z,5.20
2023-01-20T08:11:48.530Z,4.50
2023-01-20T08:12:51.327Z,4.50
2023-01-20T08:13:58.236Z,4.50
2023-01-20T08:15:04.256Z,4.50
2023-01-20T08:16:13.663Z,5.10
2023-01-20T08:17:18.249Z,4.50
2023-01-20T08:18:21.458Z,4.60
2023-01-20T08:19:26.894Z,4.50
2023-01-20T08:20:31.637Z,4.40
2023-01-20T08:21:35.794Z,4.40
2023-01-20T08:22:38.686Z,4.40
2023-01-20T08:23:45.612Z,4.50
2023-01-20T08:24:48.483Z,4.50
2023-01-20T08:26:00.001Z,4.50
2023-01-20T08:27:03.519Z,4.50
2023-01-20T08:28:06.326Z,4.60
2023-01-20T08:29:11.566Z,4.60
2023-01-20T08:30:14.649Z,4.60
2023-01-20T08:31:21.478Z,4.60
2023-01-20T08:32:27.334Z,4.20
2023-01-20T08:33:30.499Z,4.60
2023-01-20T08:34:40.199Z,4.60
2023-01-20T08:35:43.666Z,4.60
2023-01-20T08:36:48.975Z,4.70
2023-01-20T08:37:52.935Z,4.70
2023-01-20T08:38:57.279Z,4.70
2023-01-20T08:40:00.823Z,4.60
2023-01-20T08:41:08.105Z,4.70
2023-01-20T08:42:12.778Z,4.70
2023-01-20T08:43:19.370Z,4.70
2023-01-20T08:44:23.423Z,4.70
2023-01-20T08:45:28.992Z,4.70
2023-01-20T08:46:33.578Z,4.70
2023-01-20T08:47:44.639Z,4.70
2023-01-20T08:48:52.712Z,4.60
2023-01-20T08:49:56.588Z,5.10
2023-01-20T08:51:08.813Z,4.60
2023-01-20T08:52:12.645Z,4.60
2023-01-20T08:53:15.434Z,4.50
2023-01-20T08:54:19.502Z,4.50
2023-01-20T08:55:25.227Z,4.50
2023-01-20T08:56:30.827Z,4.50
2023-01-20T08:57:35.728Z,4.40
2023-01-20T08:58:40.042Z,4.40
2023-01-20T08:59:44.409Z,4.30
2023-01-20T09:00:48.660Z,4.40
2023-01-20T09:01:55.042Z,4.30
2023-01-20T09:02:58.834Z,4.30
2023-01-20T09:04:07.102Z,4.20
2023-01-20T09:05:12.430Z,4.20
2023-01-20T09:06:16.663Z,4.30
2023-01-20T09:07:21.605Z,4.40
2023-01-20T09:08:29.382Z,4.30
2023-01-20T09:09:33.705Z,4.40
2023-01-20T09:10:41.899Z,4.40
2023-01-20T09:11:51.597Z,4.40
2023-01-20T09:12:55.621Z,4.50
2023-01-20T09:13:59.414Z,4.50
2023-01-20T09:15:07.721Z,4.60
2023-01-20T09:16:14.136Z,4.50
2023-01-20T09:17:18.087Z,4.50
2023-01-20T09:18:20.630Z,4.50
2023-01-20T09:19:24.655Z,4.60
2023-01-20T09:20:30.266Z,4.60
2023-01-20T09:21:37.047Z,4.70
2023-01-20T09:22:40.607Z,4.70
2023-01-20T09:23:44.614Z,4.90
2023-01-20T09:24:51.063Z,4.80
2023-01-20T09:25:57.696Z,4.80
2023-01-20T09:27:01.430Z,4.60
2023-01-20T09:28:06.692Z,4.60
2023-01-20T09:29:13.906Z,4.70
2023-01-20T09:30:17.294Z,4.60
2023-01-20T09:31:20.948Z,5.00
2023-01-20T09:32:23.509Z,4.60
2023-01-20T09:33:27.686Z,4.60
2023-01-20T09:34:32.753Z,4.70
2023-01-20T09:35:36.569Z,4.70
2023-01-20T09:36:40.625Z,4.70
2023-01-20T09:38:01.611Z,4.70
2023-01-20T09:39:23.427Z,4.70
2023-01-20T09:40:57.642Z,4.80
2023-01-20T09:42:40.195Z,4.70
2023-01-20T09:43:57.782Z,4.70
2023-01-20T09:45:25.535Z,4.80
2023-01-20T09:46:44.645Z,4.80
2023-01-20T09:47:50.508Z,4.80
2023-01-20T09:49:24.098Z,4.80
2023-01-20T09:50:55.835Z,4.80
2023-01-20T09:52:27.705Z,5.20
2023-01-20T09:53:44.516Z,4.60
2023-01-20T09:54:59.412Z,4.70
2023-01-20T09:56:10.648Z,4.70
2023-01-20T09:57:18.275Z,4.70
2023-01-20T09:58:33.769Z,4.70
2023-01-20T09:59:44.250Z,4.70
2023-01-20T10:00:53.237Z,4.70
2023-01-20T10:02:01.980Z,4.70
2023-01-20T10:03:22.066Z,4.90
2023-01-20T10:04:33.372Z,4.80
2023-01-20T10:05:40.988Z,3.80
2023-01-20T10:06:47.673Z,4.80
2023-01-20T10:07:58.265Z,4.80
2023-01-20T10:09:08.549Z,4.70
2023-01-20T10:10:20.824Z,4.70
2023-01-20T10:11:29.461Z,4.70
2023-01-20T10:12:43.868Z,4.70
2023-01-20T10:13:54.867Z,4.70
2023-01-20T10:15:09.926Z,4.10
2023-01-20T10:16:24.880Z,4.80
2023-01-20T10:17:35.951Z,4.80
2023-01-20T10:18:45.500Z,4.70
2023-01-20T10:20:00.242Z,4.60
2023-01-20T10:21:13.750Z,4.60
2023-01-20T10:22:30.373Z,4.70
2023-01-20T10:23:44.956Z,4.70
2023-01-20T10:24:58.172Z,4.70
2023-01-20T10:26:09.907Z,4.70
2023-01-20T10:27:29.746Z,4.70
2023-01-20T10:28:41.887Z,6.10
2023-01-20T10:29:50.912Z,4.60
2023-01-20T10:30:54.792Z,4.60
2023-01-20T10:32:03.637Z,4.60
2023-01-20T10:33:12.575Z,4.50
2023-01-20T10:34:22.610Z,5.80
2023-01-20T10:35:36.118Z,4.50
2023-01-20T10:36:46.136Z,4.50
2023-01-20T10:37:50.289Z,4.60
2023-01-20T10:38:59.730Z,4.60
2023-01-20T10:40:16.757Z,4.70
2023-01-20T10:41:33.991Z,5.40
2023-01-20T10:42:39.954Z,4.60
2023-01-20T10:43:45.084Z,4.70
2023-01-20T10:44:55.001Z,4.70
2023-01-20T10:46:18.506Z,4.70
2023-01-20T10:47:41.074Z,4.70
2023-01-20T10:49:01.960Z,4.70
2023-01-20T10:50:42.911Z,4.70
2023-01-20T10:52:00.780Z,4.70
2023-01-20T10:53:39.413Z,4.70
2023-01-20T10:54:55.849Z,4.70
2023-01-20T10:56:11.717Z,4.70
2023-01-20T10:57:16.899Z,4.70
2023-01-20T10:58:25.082Z,4.60
2023-01-20T10:59:37.213Z,4.70
2023-01-20T11:00:45.532Z,4.70
2023-01-20T11:02:06.255Z,4.60
2023-01-20T11:03:19.110Z,4.60
2023-01-20T11:04:24.323Z,4.60
2023-01-20T11:05:37.965Z,4.60
2023-01-20T11:06:47.203Z,4.60
2023-01-20T11:07:57.589Z,4.60
2023-01-20T11:09:21.734Z,4.80
2023-01-20T11:10:28.264Z,4.60
2023-01-20T11:11:33.681Z,4.70
2023-01-20T11:12:43.970Z,4.70
2023-01-20T11:13:49.169Z,4.80
2023-01-20T11:15:03.363Z,4.70
2023-01-20T11:16:15.515Z,4.80
2023-01-20T11:17:22.004Z,4.80
2023-01-20T11:18:28.812Z,4.80
2023-01-20T11:19:48.520Z,4.80
2023-01-20T11:20:54.549Z,4.80
2023-01-20T11:22:13.682Z,4.80
2023-01-20T11:23:22.089Z,4.90
2023-01-20T11:24:38.587Z,4.90
2023-01-20T11:25:57.713Z,5.00
2023-01-20T11:27:11.678Z,4.70
2023-01-20T11:28:18.349Z,5.00
2023-01-20T11:29:33.116Z,5.00
2023-01-20T11:30:38.579Z,5.10
2023-01-20T11:31:46.625Z,5.20
2023-01-20T11:33:09.951Z,5.10
2023-01-20T11:34:24.108Z,5.00
2023-01-20T11:35:28.153Z,5.00
2023-01-20T11:36:30.937Z,5.00
2023-01-20T11:37:40.710Z,4.90
2023-01-20T11:38:45.926Z,4.70
2023-01-20T11:40:02.237Z,4.70
2023-01-20T11:41:06.690Z,4.60
2023-01-20T11:42:18.067Z,4.60
2023-01-20T11:43:33.610Z,4.50
2023-01-20T11:44:45.331Z,4.60
2023-01-20T11:45:52.404Z,4.60
2023-01-20T11:46:55.345Z,4.60
2023-01-20T11:48:19.461Z,4.70
2023-01-20T11:49:24.564Z,4.60
2023-01-20T11:50:32.606Z,4.60
2023-01-20T11:51:47.305Z,4.60
2023-01-20T11:52:51.281Z,4.70
2023-01-20T11:54:08.762Z,4.70
2023-01-20T11:55:15.952Z,4.70
2023-01-20T11:56:25.320Z,4.60
2023-01-20T11:57:28.136Z,4.60
2023-01-20T11:58:35.613Z,4.60
2023-01-20T11:59:49.724Z,4.70
2023-01-20T12:01:02.411Z,4.70
2023-01-20T12:02:30.226Z,4.80
2023-01-20T12:04:05.272Z,4.80
2023-01-20T12:05:20.914Z,4.80
2023-01-20T12:06:29.439Z,4.70
2023-01-20T12:07:39.436Z,4.80
2023-01-20T12:08:49.573Z,4.70
2023-01-20T12:09:59.618Z,4.60
2023-01-20T12:11:07.532Z,4.60
2023-01-20T12:12:25.387Z,4.50
2023-01-20T12:13:55.890Z,4.60
2023-01-20T12:15:06.171Z,4.60
2023-01-20T12:16:14.759Z,3.50
2023-01-20T12:17:38.180Z,4.60
2023-01-20T12:19:01.878Z,4.60
2023-01-20T12:20:15.719Z,4.50
2023-01-20T12:21:21.993Z,4.50
2023-01-20T12:22:33.256Z,4.40
2023-01-20T12:23:47.833Z,4.30
2023-01-20T12:25:10.245Z,4.30
2023-01-20T12:26:16.961Z,4.20
2023-01-20T12:27:27.423Z,4.20
2023-01-20T12:28:40.086Z,4.10
2023-01-20T12:29:46.333Z,4.00
2023-01-20T12:30:59.252Z,4.00
2023-01-20T12:32:09.029Z,3.90
2023-01-20T12:33:22.733Z,3.80
2023-01-20T12:34:30.119Z,3.80
2023-01-20T12:36:10.659Z,3.90
2023-01-20T12:37:28.014Z,4.90
2023-01-20T12:38:43.927Z,3.80
2023-01-20T12:40:15.100Z,3.70
2023-01-20T12:41:48.502Z,3.60
2023-01-20T12:43:23.398Z,3.90
2023-01-20T12:44:40.251Z,4.00
2023-01-20T12:46:00.977Z,4.10
2023-01-20T12:47:25.916Z,4.40
2023-01-20T12:48:45.475Z,3.20
2023-01-20T12:50:18.763Z,4.20
2023-01-20T12:51:43.516Z,4.30
2023-01-20T12:53:11.519Z,4.00
2023-01-20T12:54:48.465Z,3.90
2023-01-20T12:56:06.841Z,4.20
2023-01-20T12:57:26.061Z,4.20
2023-01-20T12:58:49.673Z,4.20
2023-01-20T13:00:12.931Z,4.20
2023-01-20T13:01:38.553Z,4.20
2023-01-20T13:03:03.684Z,4.00
2023-01-20T13:04:46.253Z,4.20
2023-01-20T13:06:25.457Z,4.40
2023-01-20T13:07:50.437Z,4.40
2023-01-20T13:09:07.523Z,4.50
2023-01-20T13:10:42.763Z,4.60
2023-01-20T13:12:07.623Z,4.80
2023-01-20T13:13:36.787Z,5.00
2023-01-20T13:14:50.178Z,5.20
2023-01-20T13:16:01.778Z,5.20
2023-01-20T13:17:19.315Z,4.40
2023-01-20T13:18:38.300Z,5.20
2023-01-20T13:19:42.957Z,5.30
2023-01-20T13:20:53.034Z,5.40
2023-01-20T13:22:07.707Z,5.40
2023-01-20T13:23:17.707Z,5.60
2023-01-20T13:24:29.452Z,5.70
2023-01-20T13:25:36.871Z,5.90
2023-01-20T13:26:40.872Z,5.90
2023-01-20T13:27:47.460Z,5.90
2023-01-20T13:28:55.715Z,6.10
2023-01-20T13:30:00.930Z,6.20
2023-01-20T13:31:34.227Z,6.20
2023-01-20T13:32:43.742Z,6.40
2023-01-20T13:33:47.550Z,6.30
2023-01-20T13:34:50.131Z,6.50
2023-01-20T13:35:57.312Z,6.60
2023-01-20T13:37:25.505Z,6.70
2023-01-20T13:38:33.314Z,6.70
2023-01-20T13:39:45.670Z,6.60
2023-01-20T13:40:52.861Z,6.20
2023-01-20T13:41:57.445Z,6.00
2023-01-20T13:43:01.777Z,7.30
2023-01-20T13:44:27.817Z,5.50
2023-01-20T13:45:30.804Z,5.30
2023-01-20T13:46:50.219Z,5.20
2023-01-20T13:48:02.435Z,5.10
2023-01-20T13:49:15.675Z,5.10
2023-01-20T13:50:25.001Z,5.50
2023-01-20T13:51:48.325Z,4.80
2023-01-20T13:53:05.628Z,4.70
2023-01-20T13:54:37.691Z,4.70
2023-01-20T13:56:26.077Z,4.70
2023-01-20T13:57:49.590Z,4.50
2023-01-20T13:58:56.446Z,4.60
2023-01-20T13:59:59.511Z,4.40
2023-01-20T14:01:08.992Z,3.00
2023-01-20T14:02:19.082Z,4.60
2023-01-20T14:03:34.306Z,3.90
2023-01-20T14:04:47.592Z,3.70
2023-01-20T14:05:55.764Z,3.70
2023-01-20T14:06:58.371Z,3.50
2023-01-20T14:08:13.796Z,3.50
2023-01-20T14:09:26.567Z,3.40
2023-01-20T14:10:30.217Z,3.20
2023-01-20T14:11:38.878Z,3.30
2023-01-20T14:12:44.788Z,3.20
2023-01-20T14:13:55.117Z,3.20
2023-01-20T14:14:57.818Z,2.00
2023-01-20T14:16:01.700Z,3.30
2023-01-20T14:17:05.269Z,3.30
2023-01-20T14:18:18.188Z,2.40
2023-01-20T14:19:27.668Z,2.50
2023-01-20T14:20:31.266Z,3.40
2023-01-20T14:21:44.328Z,3.50
2023-01-20T14:22:46.759Z,3.10
2023-01-20T14:23:51.789Z,3.30
2023-01-20T14:24:59.208Z,3.40
2023-01-20T14:26:10.081Z,3.30
2023-01-20T14:27:22.552Z,3.40
2023-01-20T14:28:25.679Z,3.40
2023-01-20T14:29:29.926Z,3.30
2023-01-20T14:30:34.746Z,3.30
2023-01-20T14:31:45.870Z,3.20
2023-01-20T14:32:49.689Z,4.00
2023-01-20T14:34:01.880Z,3.00
2023-01-20T14:35:14.734Z,3.00
2023-01-20T14:36:22.178Z,3.10
2023-01-20T14:37:33.978Z,3.00
2023-01-20T14:38:51.905Z,3.00
2023-01-20T14:40:04.403Z,3.00
2023-01-20T14:41:23.765Z,3.00
2023-01-20T14:42:33.037Z,3.00
2023-01-20T14:43:45.223Z,3.10
2023-01-20T14:44:52.669Z,3.10
2023-01-20T14:45:55.382Z,3.10
2023-01-20T14:47:03.267Z,3.00
2023-01-20T14:48:19.053Z,3.00
2023-01-20T14:49:36.258Z,3.00
2023-01-20T14:50:40.101Z,2.90
2023-01-20T14:51:44.618Z,2.90
2023-01-20T14:52:49.697Z,2.90
2023-01-20T14:54:47.153Z,2.80
2023-01-20T14:56:02.020Z,2.80
2023-01-20T14:57:21.556Z,2.90
2023-01-20T14:58:25.459Z,3.00
2023-01-20T14:59:28.132Z,2.90
2023-01-20T15:00:34.437Z,2.90
2023-01-20T15:01:37.179Z,3.00
2023-01-20T15:02:44.495Z,3.10
2023-01-20T15:03:55.118Z,3.10
2023-01-20T15:05:01.128Z,3.10
2023-01-20T15:06:20.519Z,3.10
2023-01-20T15:07:24.412Z,3.40
2023-01-20T15:08:56.734Z,2.90
2023-01-20T15:10:08.451Z,3.00
2023-01-20T15:11:21.980Z,2.90
2023-01-20T15:12:53.406Z,2.90
2023-01-20T15:14:10.577Z,2.90
2023-01-20T15:15:30.058Z,3.00
2023-01-20T15:16:49.624Z,3.00
2023-01-20T15:18:22.402Z,2.90
2023-01-20T15:19:44.048Z,2.90
2023-01-20T15:21:00.929Z,2.90